createdAt,value
2023-02-15T00:00:50.260Z,0.80
2023-02-15T00:03:50.687Z,0.70
2023-02-15T00:06:48.649Z,0.60
2023-02-15T00:09:48.198Z,0.50
2023-02-15T00:12:46.261Z,0.50
2023-02-15T00:15:43.998Z,0.50
2023-02-15T00:18:41.682Z,0.50
2023-02-15T00:21:40.651Z,0.50
2023-02-15T00:24:38.267Z,0.60
2023-02-15T00:27:36.091Z,0.60
2023-02-15T00:30:33.966Z,0.70
2023-02-15T00:33:31.761Z,0.70
2023-02-15T00:36:33.859Z,0.60
2023-02-15T00:40:18.969Z,0.50
2023-02-15T00:43:19.053Z,0.40
2023-02-15T00:46:19.422Z,0.20
2023-02-15T00:49:19.567Z,0.10
2023-02-15T00:52:19.343Z,0.00
2023-02-15T00:55:18.929Z,0.10
2023-02-15T00:58:19.779Z,-0.10
2023-02-15T01:01:21.548Z,-0.10
2023-02-15T01:04:21.614Z,-0.30
2023-02-15T01:07:21.001Z,-0.30
2023-02-15T01:10:19.212Z,-0.40
2023-02-15T01:13:17.604Z,-0.40
2023-02-15T01:16:15.447Z,-0.30
2023-02-15T01:19:13.488Z,-0.50
2023-02-15T01:22:11.352Z,-0.50
2023-02-15T01:25:09.090Z,-0.60
2023-02-15T01:28:07.599Z,-1.10
2023-02-15T01:31:09.148Z,-1.00
2023-02-15T01:34:07.495Z,-0.90
2023-02-15T01:37:05.263Z,-0.90
2023-02-15T01:40:49.113Z,-0.90
2023-02-15T01:44:44.413Z,-1.10
2023-02-15T01:47:52.005Z,-1.10
2023-02-15T01:50:59.372Z,-1.10
2023-02-15T01:54:15.379Z,-1.10
2023-02-15T01:57:24.125Z,-1.00
2023-02-15T02:00:26.425Z,-0.90
2023-02-15T02:03:42.742Z,-0.90
2023-02-15T02:06:43.788Z,-0.80
2023-02-15T02:09:41.761Z,-0.70
2023-02-15T02:12:40.609Z,-0.70
2023-02-15T02:16:02.848Z,-0.80
2023-02-15T02:19:32.281Z,-0.70
2023-02-15T02:22:55.763Z,-0.60
2023-02-15T02:26:15.612Z,-0.50
2023-02-15T02:29:43.867Z,-0.30
2023-02-15T02:33:12.337Z,-0.10
2023-02-15T02:36:23.772Z,0.00
2023-02-15T02:39:38.692Z,0.10
2023-02-15T02:42:44.655Z,0.20
2023-02-15T02:45:49.476Z,0.30
2023-02-15T02:48:50.401Z,0.40
2023-02-15T02:51:48.252Z,0.60
2023-02-15T02:54:45.950Z,0.70
2023-02-15T02:58:19.089Z,0.80
2023-02-15T03:01:26.094Z,0.90
2023-02-15T03:04:30.358Z,1.10
2023-02-15T03:07:31.125Z,1.20
2023-02-15T03:10:31.205Z,1.40
2023-02-15T03:13:30.001Z,1.60
2023-02-15T03:16:29.306Z,1.70
2023-02-15T03:19:32.046Z,1.90
2023-02-15T03:22:37.851Z,1.90
2023-02-15T03:25:40.458Z,2.00
2023-02-15T03:28:44.455Z,1.80
2023-02-15T03:31:45.906Z,1.90
2023-02-15T03:34:45.145Z,1.70
2023-02-15T03:37:49.641Z,1.40
2023-02-15T03:41:04.284Z,1.30
2023-02-15T03:44:08.416Z,0.90
2023-02-15T03:47:15.158Z,1.00
2023-02-15T03:50:37.775Z,0.90
2023-02-15T03:53:35.399Z,0.90
2023-02-15T03:56:35.107Z,1.00
2023-02-15T03:59:48.400Z,1.10
2023-02-15T04:03:19.003Z,1.20
2023-02-15T04:06:17.096Z,1.20
2023-02-15T04:09:30.430Z,1.30
2023-02-15T04:12:28.317Z,1.20
2023-02-15T04:15:41.340Z,1.30
2023-02-15T04:18:55.756Z,1.30
2023-02-15T04:22:08.694Z,1.50
2023-02-15T04:25:14.025Z,1.60
2023-02-15T04:28:12.494Z,1.70
2023-02-15T04:31:10.277Z,1.60
2023-02-15T04:34:08.210Z,1.70
2023-02-15T04:37:05.997Z,1.70
2023-02-15T04:40:04.606Z,1.80
2023-02-15T04:43:02.786Z,1.90
2023-02-15T04:46:01.005Z,1.90
2023-02-15T04:48:59.317Z,2.00
2023-02-15T04:51:57.127Z,2.10
2023-02-15T04:54:54.990Z,2.20
2023-02-15T04:57:52.607Z,2.20
2023-02-15T05:00:50.528Z,2.30
2023-02-15T05:03:48.255Z,2.30
2023-02-15T05:06:46.045Z,2.30
2023-02-15T05:09:43.674Z,2.40
2023-02-15T05:12:41.462Z,2.40
2023-02-15T05:15:39.141Z,2.40
2023-02-15T05:18:37.116Z,2.50
2023-02-15T05:21:34.963Z,2.60
2023-02-15T05:24:48.190Z,2.60
2023-02-15T05:28:01.262Z,2.80
2023-02-15T05:31:05.628Z,2.90
2023-02-15T05:34:04.042Z,2.90
2023-02-15T05:37:01.914Z,2.90
2023-02-15T05:39:59.626Z,3.00
2023-02-15T05:42:58.609Z,3.10
2023-02-15T05:45:56.978Z,3.00
2023-02-15T05:48:54.757Z,3.10
2023-02-15T05:51:52.507Z,3.30
2023-02-15T05:54:50.501Z,3.30
2023-02-15T05:57:48.402Z,3.30
2023-02-15T06:00:46.158Z,3.40
2023-02-15T06:03:43.883Z,3.40
2023-02-15T06:06:41.671Z,3.40
2023-02-15T06:09:39.288Z,3.60
2023-02-15T06:12:37.370Z,3.70
2023-02-15T06:15:35.120Z,3.70
2023-02-15T06:18:32.954Z,3.70
2023-02-15T06:21:31.598Z,3.80
2023-02-15T06:24:29.308Z,4.00
2023-02-15T06:27:27.130Z,3.90
2023-02-15T06:30:25.963Z,3.90
2023-02-15T06:33:24.334Z,3.80
2023-02-15T06:36:22.080Z,3.80
2023-02-15T06:39:19.811Z,3.90
2023-02-15T06:42:19.480Z,3.90
2023-02-15T06:45:17.214Z,4.00
2023-02-15T06:48:15.296Z,3.90
2023-02-15T06:51:13.074Z,3.90
2023-02-15T06:54:10.883Z,4.00
2023-02-15T06:57:08.582Z,4.00
2023-02-15T07:00:07.483Z,3.90
2023-02-15T07:03:05.209Z,4.00
2023-02-15T07:06:04.891Z,4.00
2023-02-15T07:09:03.074Z,4.10
2023-02-15T07:12:16.016Z,4.30
2023-02-15T07:15:14.893Z,4.40
2023-02-15T07:18:12.813Z,4.30
2023-02-15T07:21:10.487Z,4.50
2023-02-15T07:24:08.704Z,4.60
2023-02-15T07:27:09.102Z,4.60
2023-02-15T07:30:08.952Z,4.20
2023-02-15T07:33:21.817Z,4.20
2023-02-15T07:36:19.695Z,4.10
2023-02-15T07:39:17.342Z,4.30
2023-02-15T07:42:15.265Z,4.40
2023-02-15T07:45:12.894Z,4.30
2023-02-15T07:48:11.375Z,4.40
2023-02-15T07:51:11.528Z,4.50
2023-02-15T07:54:09.409Z,4.10
2023-02-15T07:57:07.171Z,4.20
2023-02-15T08:00:05.964Z,4.20
2023-02-15T08:03:19.044Z,4.00
2023-02-15T08:06:17.643Z,3.90
2023-02-15T08:09:15.340Z,4.20
2023-02-15T08:12:13.162Z,4.40
2023-02-15T08:15:11.024Z,4.20
2023-02-15T08:18:08.815Z,4.00
2023-02-15T08:21:06.565Z,3.90
2023-02-15T08:24:05.882Z,4.00
2023-02-15T08:27:06.375Z,4.30
2023-02-15T08:30:05.917Z,4.40
2023-02-15T08:33:04.472Z,4.50
2023-02-15T08:36:08.082Z,4.70
2023-02-15T08:39:07.305Z,4.90
2023-02-15T08:42:05.350Z,5.00
2023-02-15T08:45:03.663Z,4.90
2023-02-15T08:48:01.783Z,4.70
2023-02-15T08:50:59.513Z,4.80
2023-02-15T08:53:59.675Z,4.80
2023-02-15T08:56:57.353Z,4.90
2023-02-15T08:59:56.555Z,4.80
2023-02-15T09:02:54.267Z,4.80
2023-02-15T09:05:52.299Z,4.80
2023-02-15T09:08:51.446Z,4.90
2023-02-15T09:11:56.844Z,4.80
2023-02-15T09:14:56.288Z,4.90
2023-02-15T09:17:54.541Z,5.00
2023-02-15T09:20:52.335Z,5.20
2023-02-15T09:23:52.353Z,5.40
2023-02-15T09:26:50.841Z,5.60
2023-02-15T09:29:48.613Z,5.50
2023-02-15T09:32:47.623Z,5.50
2023-02-15T09:35:45.368Z,5.70
2023-02-15T09:38:43.038Z,5.80
2023-02-15T09:42:03.112Z,5.90
2023-02-15T09:45:24.181Z,5.80
2023-02-15T09:48:40.234Z,5.90
2023-02-15T09:52:01.257Z,6.00
2023-02-15T09:55:14.624Z,6.00
2023-02-15T09:58:29.633Z,6.20
2023-02-15T10:01:53.333Z,6.10
2023-02-15T10:05:06.265Z,5.90
2023-02-15T10:08:12.578Z,6.00
2023-02-15T10:11:38.936Z,5.70
2023-02-15T10:14:51.504Z,5.60
2023-02-15T10:18:24.180Z,5.70
2023-02-15T10:21:36.672Z,5.60
2023-02-15T10:24:57.099Z,5.40
2023-02-15T10:27:54.881Z,5.40
2023-02-15T10:30:58.824Z,5.40
2023-02-15T10:34:21.862Z,5.40
2023-02-15T10:37:47.200Z,5.20
2023-02-15T10:41:11.215Z,4.10
2023-02-15T10:44:39.639Z,3.70
2023-02-15T10:48:08.114Z,3.40
2023-02-15T10:51:11.235Z,2.90
2023-02-15T10:54:34.918Z,3.20
2023-02-15T10:58:04.778Z,3.40
2023-02-15T11:01:24.987Z,3.40
2023-02-15T11:04:42.909Z,3.00
2023-02-15T11:07:44.933Z,2.90
2023-02-15T11:10:50.639Z,2.70
2023-02-15T11:13:52.820Z,3.10
2023-02-15T11:16:55.419Z,3.40
2023-02-15T11:20:04.401Z,3.60
2023-02-15T11:23:04.119Z,3.90
2023-02-15T11:26:06.225Z,4.10
2023-02-15T11:29:24.529Z,4.10
2023-02-15T11:32:38.820Z,4.10
2023-02-15T11:35:48.476Z,4.10
2023-02-15T11:38:48.186Z,4.20
2023-02-15T11:41:53.318Z,4.20
2023-02-15T11:45:13.505Z,4.10
2023-02-15T11:48:13.876Z,4.00
2023-02-15T11:51:15.424Z,3.90
2023-02-15T11:54:13.103Z,3.80
2023-02-15T11:57:36.998Z,3.70
2023-02-15T12:00:38.718Z,3.60
2023-02-15T12:03:48.007Z,3.50
2023-02-15T12:07:02.242Z,3.50
2023-02-15T12:10:13.304Z,3.40
2023-02-15T12:13:14.205Z,3.40
2023-02-15T12:16:14.509Z,3.30
2023-02-15T12:19:26.059Z,3.30
2023-02-15T12:22:29.276Z,3.20
2023-02-15T12:25:46.574Z,2.90
2023-02-15T12:28:51.287Z,2.70
2023-02-15T12:31:52.534Z,2.50
2023-02-15T12:34:52.637Z,2.40
2023-02-15T12:37:56.990Z,2.30
2023-02-15T12:41:23.957Z,2.40
2023-02-15T12:44:27.228Z,2.40
2023-02-15T12:47:29.379Z,2.20
2023-02-15T12:50:34.699Z,2.10
2023-02-15T12:53:35.766Z,2.20
2023-02-15T12:56:33.428Z,2.30
2023-02-15T12:59:31.834Z,2.30
2023-02-15T13:02:37.732Z,2.30
2023-02-15T13:05:42.103Z,2.30
2023-02-15T13:08:50.258Z,2.30
2023-02-15T13:11:48.611Z,2.20
2023-02-15T13:14:52.280Z,2.20
2023-02-15T13:17:50.201Z,2.20
2023-02-15T13:20:49.467Z,2.10
2023-02-15T13:23:52.692Z,2.10
2023-02-15T13:26:51.218Z,2.00
2023-02-15T13:29:54.417Z,1.90
2023-02-15T13:32:57.549Z,1.80
2023-02-15T13:36:09.179Z,1.70
2023-02-15T13:39:20.416Z,1.60
2023-02-15T13:42:34.263Z,1.60
2023-02-15T13:45:58.155Z,1.60
2023-02-15T13:49:29.649Z,1.40
2023-02-15T13:52:29.802Z,1.40
2023-02-15T13:55:45.713Z,1.30
2023-02-15T13:59:01.817Z,1.40
2023-02-15T14:02:25.891Z,1.40
2023-02-15T14:05:45.481Z,1.40
2023-02-15T14:09:05.885Z,1.40
2023-02-15T14:12:31.338Z,1.40
2023-02-15T14:15:48.177Z,1.40
2023-02-15T14:18:52.613Z,1.20
2023-02-15T14:22:02.291Z,0.90
2023-02-15T14:25:21.961Z,0.90
2023-02-15T14:28:32.793Z,0.90
2023-02-15T14:31:35.810Z,1.00
2023-02-15T14:34:47.373Z,1.00
2023-02-15T14:38:15.636Z,0.90
2023-02-15T14:41:33.366Z,0.90
2023-02-15T14:44:42.803Z,1.00
2023-02-15T14:47:50.594Z,1.10
2023-02-15T14:50:49.583Z,1.00
2023-02-15T14:53:47.423Z,1.00
2023-02-15T14:56:46.531Z,0.80
2023-02-15T15:00:08.475Z,0.90
2023-02-15T15:03:19.039Z,1.00
2023-02-15T15:06:33.340Z,1.10
2023-02-15T15:09:34.961Z,1.10
2023-02-15T15:12:39.738Z,1.10
2023-02-15T15:15:48.087Z,1.10
2023-02-15T15:18:49.715Z,1.00
2023-02-15T15:21:56.878Z,1.10
2023-02-15T15:25:04.530Z,1.10
2023-02-15T15:28:02.358Z,1.10
2023-02-15T15:31:19.946Z,1.20
2023-02-15T15:34:23.127Z,1.20
2023-02-15T15:37:48.881Z,1.20
2023-02-15T15:41:17.190Z,1.20
2023-02-15T15:44:48.549Z,1.20
2023-02-15T15:48:21.584Z,1.30
2023-02-15T15:51:23.173Z,1.30
2023-02-15T15:54:23.708Z,1.20
2023-02-15T15:57:30.355Z,1.20
2023-02-15T16:00:42.772Z,1.20
2023-02-15T16:03:49.285Z,1.20
2023-02-15T16:06:47.008Z,1.20
2023-02-15T16:10:06.089Z,1.30
2023-02-15T16:13:04.078Z,1.30
2023-02-15T16:16:08.924Z,1.30
2023-02-15T16:19:06.970Z,1.20
2023-02-15T16:22:07.942Z,0.60
2023-02-15T16:25:27.190Z,0.60
2023-02-15T16:28:25.523Z,0.80
2023-02-15T16:31:24.427Z,1.00
2023-02-15T16:34:22.632Z,1.00
2023-02-15T16:37:24.739Z,1.10
2023-02-15T16:40:42.163Z,1.00
2023-02-15T16:43:41.942Z,1.00
2023-02-15T16:46:44.467Z,1.00
2023-02-15T16:49:47.362Z,0.90
2023-02-15T16:52:45.825Z,0.90
2023-02-15T16:55:44.429Z,1.00
2023-02-15T16:58:46.385Z,1.00
2023-02-15T17:01:46.623Z,0.90
2023-02-15T17:04:44.401Z,0.80
2023-02-15T17:07:44.138Z,0.80
2023-02-15T17:10:44.547Z,0.60
2023-02-15T17:14:15.617Z,0.50
2023-02-15T17:17:16.680Z,0.50
2023-02-15T17:20:18.410Z,0.40
2023-02-15T17:23:33.190Z,0.30
2023-02-15T17:26:34.940Z,0.10
2023-02-15T17:29:38.946Z,0.10
2023-02-15T17:32:37.645Z,0.20
2023-02-15T17:35:38.654Z,0.10
2023-02-15T17:38:38.334Z,0.20
2023-02-15T17:41:38.763Z,0.10
2023-02-15T17:44:36.639Z,0.20
2023-02-15T17:47:34.448Z,0.10
2023-02-15T17:50:32.583Z,0.00
2023-02-15T17:53:30.642Z,-0.20
2023-02-15T17:56:28.259Z,-0.10
2023-02-15T17:59:26.067Z,-0.10
2023-02-15T18:02:39.272Z,0.00
2023-02-15T18:05:52.454Z,0.00
2023-02-15T18:09:05.316Z,0.00
2023-02-15T18:12:04.077Z,-0.10
2023-02-15T18:15:02.140Z,-0.10
2023-02-15T18:18:00.020Z,-0.10
2023-02-15T18:20:57.698Z,-0.10
2023-02-15T18:23:55.488Z,0.00
2023-02-15T18:26:55.104Z,0.00
2023-02-15T18:29:53.013Z,0.00
2023-02-15T18:32:53.621Z,-0.20
2023-02-15T18:35:51.988Z,-0.20
2023-02-15T18:38:50.027Z,-0.50
2023-02-15T18:41:47.760Z,-0.90
2023-02-15T18:44:45.390Z,-0.90
2023-02-15T18:47:43.208Z,-0.80
2023-02-15T18:50:41.027Z,-0.70
2023-02-15T18:53:38.919Z,-0.60
2023-02-15T18:56:36.926Z,-0.50
2023-02-15T18:59:34.694Z,-0.50
2023-02-15T19:02:32.405Z,-0.50
2023-02-15T19:05:31.407Z,-0.40
2023-02-15T19:08:29.083Z,-0.50
2023-02-15T19:11:29.633Z,-0.40
2023-02-15T19:14:33.012Z,-0.50
2023-02-15T19:17:30.504Z,-0.40
2023-02-15T19:20:33.893Z,-0.30
2023-02-15T19:23:32.462Z,-0.40
2023-02-15T19:26:44.787Z,-0.40
2023-02-15T19:29:43.244Z,-0.50
2023-02-15T19:32:40.928Z,-0.50
2023-02-15T19:35:39.882Z,-0.50
2023-02-15T19:38:37.880Z,-0.50
2023-02-15T19:41:35.869Z,-0.50
2023-02-15T19:44:33.922Z,-0.40
2023-02-15T19:47:32.742Z,-0.30
2023-02-15T19:50:33.728Z,-0.30
2023-02-15T19:53:31.470Z,-0.30
2023-02-15T19:56:29.360Z,-0.30
2023-02-15T19:59:30.550Z,-0.30
2023-02-15T20:02:41.272Z,-0.30
2023-02-15T20:05:39.870Z,-0.40
2023-02-15T20:08:37.681Z,-0.30
2023-02-15T20:11:35.434Z,-0.40
2023-02-15T20:14:33.265Z,-0.30
2023-02-15T20:17:31.114Z,-0.30
2023-02-15T20:20:39.032Z,-0.40
2023-02-15T20:23:37.360Z,-0.50
2023-02-15T20:26:35.088Z,-0.60
2023-02-15T20:29:32.833Z,-0.80
2023-02-15T20:32:30.652Z,-0.80
2023-02-15T20:35:30.090Z,-0.80
2023-02-15T20:38:30.655Z,-0.90
2023-02-15T20:41:43.603Z,-1.00
2023-02-15T20:44:41.694Z,-0.90
2023-02-15T20:47:39.471Z,-1.00
2023-02-15T20:50:37.771Z,-1.20
2023-02-15T20:53:35.546Z,-1.10
2023-02-15T20:56:33.880Z,-1.00
2023-02-15T20:59:33.419Z,-1.20
2023-02-15T21:02:32.240Z,-1.10
2023-02-15T21:05:36.608Z,-1.10
2023-02-15T21:13:41.734Z,-1.20
2023-02-15T21:16:41.197Z,-1.10
2023-02-15T21:19:41.371Z,-1.10
2023-02-15T21:22:43.041Z,-1.10
2023-02-15T21:25:44.549Z,-1.10
2023-02-15T21:28:44.896Z,-1.00
2023-02-15T21:31:44.974Z,-1.00
2023-02-15T21:34:44.545Z,-1.00
2023-02-15T21:37:46.412Z,-1.00
2023-02-15T21:40:46.920Z,-1.10
2023-02-15T21:44:02.052Z,-1.10
2023-02-15T21:47:16.784Z,-0.90
2023-02-15T21:50:37.749Z,-0.90
2023-02-15T21:53:43.872Z,-1.00
2023-02-15T21:56:44.188Z,-1.10
2023-02-15T21:59:43.988Z,-1.10
2023-02-15T22:02:46.238Z,-1.10
2023-02-15T22:05:45.735Z,-1.00
2023-02-15T22:08:45.513Z,-0.90
2023-02-15T22:11:46.932Z,-0.90
2023-02-15T22:14:52.370Z,-0.80
2023-02-15T22:17:51.851Z,-0.90
2023-02-15T22:20:50.172Z,-1.00
2023-02-15T22:23:48.102Z,-1.00
2023-02-15T22:26:45.973Z,-0.80
2023-02-15T22:29:43.777Z,-0.90
2023-02-15T22:32:41.630Z,-0.90
2023-02-15T22:35:39.474Z,-1.10
2023-02-15T22:38:37.465Z,-1.10
2023-02-15T22:41:35.621Z,-1.30
2023-02-15T22:44:35.625Z,-1.50
2023-02-15T22:47:36.306Z,-1.40
2023-02-15T22:50:37.037Z,-1.30
2023-02-15T22:53:35.693Z,-1.30
2023-02-15T22:56:40.706Z,-1.40
2023-02-15T22:59:38.718Z,-1.40
2023-02-15T23:02:36.463Z,-1.50
2023-02-15T23:05:34.152Z,-1.50
2023-02-15T23:08:31.863Z,-1.50
2023-02-15T23:11:29.831Z,-1.50
2023-02-15T23:14:33.032Z,-1.40
2023-02-15T23:17:30.623Z,-1.40
2023-02-15T23:20:28.581Z,-1.30
2023-02-15T23:23:34.156Z,-1.40
2023-02-15T23:26:32.460Z,-1.40
2023-02-15T23:29:30.069Z,-1.40
2023-02-15T23:32:27.895Z,-1.30
2023-02-15T23:35:25.664Z,-1.40
2023-02-15T23:38:27.684Z,-1.40
2023-02-15T23:41:29.836Z,-1.50
2023-02-15T23:44:28.067Z,-1.30
2023-02-15T23:47:47.633Z,-1.50
2023-02-15T23:50:45.403Z,-1.50
2023-02-15T23:53:43.211Z,-1.50
2023-02-15T23:56:42.671Z,-1.50
2023-02-15T23:59:43.176Z,-1.30
